Terminal Aerodrome Forecast
Issued by NWS Wakefield, VA

Home | Current Version | Previous Version | Text Only | Print | Product List | Glossary On
Versions: 1 2 3 4 5 6 7 8 9 10 11 12 13 14 15 16 17 18 19 20 21 22 23 24 25 26 27 28 29 30 31 32 33 34
000
FTUS41 KAKQ 230557 RRA
TAFECG
TAF
KECG 230557Z 2306/2406 03009KT P6SM -SHRA OVC004
      TEMPO 2306/2308 3SM -SHRA BR OVC002
     FM230800 06013KT 2SM SHRA BR OVC003
     FM231100 08010KT 1SM BR VCSH OVC003
     FM231400 19009KT 4SM BR OVC005
     FM231600 21008KT P6SM BKN015
     FM231800 21008KT P6SM BKN050
     FM240300 27005KT P6SM BKN020=

USA.gov is the U.S. government's official web portal to all federal, state and local government web resources and services.